Meteo Giornale » Osservazioni meteo Stati Uniti (USA) » Lone Rock Tri-Co
ore: 01:33 - Osservazioni Meteo Lone Rock Tri-Co
Lat. 43° 12' N Lon. 90° 10' W Alt. 219 metri s.l.m.
21 °C
Nebbia
Temp. 24 Ore
21 °C
31 °C
Nord
0 Km/h
Dew point 21 °C
Umidità 100 %
Visibilità 2 Km
Il sole sorge alle ore 06:25
Il sole tramonta alle ore 19:35
| Data e Ora | Cielo e Fenomeni | T °C | DP °C | Um. % | Pres. hPa | Vis. km | Vento km/h | |
|---|---|---|---|---|---|---|---|---|
| Oggi h: 01:33 | Nebbia | 21 | 21 | 100 | 1013 | 2 | N 0 | |
| Oggi h: 01:24 | Foschia | 21 | 21 | 100 | 1013 | 5 | N 0 | |
| Oggi h: 01:19 | Foschia | 21 | 21 | 100 | 1013 | 2 | N 0 | |
| Oggi h: 01:12 | Foschia | 21 | 21 | 100 | 1013 | 2 | N 0 | |
| Oggi h: 01:03 | Nebbia | 21 | 21 | 100 | 1013 | 2 | N 0 | |
| Oggi h: 00:56 | Nebbia | 21 | 21 | 100 | 1013 | 2 | N 0 | |
| Oggi h: 00:53 | Nebbia | 21 | 21 | 100 | 1013 | 2 | N 0 | |
| Oggi h: 00:48 | Foschia | 21 | 21 | 100 | 1013 | 2 | N 0 | |
| Oggi h: 00:46 | Foschia | 21 | 21 | 100 | 1013 | 2 | N 0 | |
| Oggi h: 00:37 | Foschia | 21 | 21 | 100 | 1012 | 5 | N 0 | |
| Oggi h: 00:20 | Foschia | 22 | 21 | 94 | 1012 | 2 | N 0 | |
| Oggi h: 00:16 | Foschia | 22 | 22 | 100 | 1012 | 5 | N 0 | |
| Ieri h: 23:56 | Foschia | 22 | 22 | 100 | 1012 | 6 | N 0 | |
| Ieri h: 23:10 | Foschia | 22 | 22 | 100 | 1012 | 8 | N 5.5 | |
| Ieri h: 22:56 | Foschia | 22 | 22 | 100 | 1012 | 3 | N 0 | |
| Ieri h: 22:17 | Foschia | 23 | 23 | 100 | 1012 | 5 | N 0 | |
| Ieri h: 22:07 | Foschia | 23 | 23 | 100 | 1013 | 2 | N 0 | |
| Ieri h: 21:56 | Foschia | 22 | 22 | 100 | 1013 | 10 | N 0 | |
| Ieri h: 20:56 | Sereno | 24 | 23 | 94 | 1012 | 11 | N 0 | |
| Ieri h: 19:56 | Sereno | 25 | 24 | 94 | 1012 | 14 | N 5.5 | |
| Ieri h: 18:56 | Sereno | 29 | 24 | 74 | 1011 | 10 | S/SO 9.3 | |
| Ieri h: 17:56 | Sereno | 29 | 23 | 70 | 1011 | 10 | SO 9.3 | |
| Ieri h: 16:56 | Sereno | 29 | 23 | 70 | 1011 | 10 | S 7.4 | |
| Ieri h: 15:56 | Sereno | 29 | 23 | 70 | 1011 | 10 | S 7.4 | |
| Ieri h: 14:56 | Sereno | 31 | 23 | 62 | 1011 | 10 | S/SO 13 | |
| Ieri h: 13:56 | Sereno | 29 | 23 | 70 | 1011 | 10 | S/SO 13 | |
| Ieri h: 12:56 | Sereno | 30 | 22 | 62 | 1011 | 10 | O/SO 7.4 | |
| Ieri h: 11:56 | Sereno | 29 | 22 | 66 | 1012 | 10 | S/SO 11.1 | |
| Ieri h: 10:56 | Sereno | 28 | 21 | 65 | 1011 | 10 | SO 11.1 | |
| Ieri h: 09:56 | Sereno | 27 | 21 | 69 | 1011 | 10 | O/SO 11.1 | |
| Ieri h: 08:56 | Sereno | 25 | 21 | 78 | 1011 | 10 | S 9.3 | |
| Ieri h: 07:56 | Sereno | 24 | 19 | 73 | 1010 | 10 | N 0 | |
| Ieri h: 06:56 | Sereno | 22 | 19 | 83 | 1010 | 10 | N 0 | |
| Ieri h: 05:56 | Sereno | 23 | 19 | 78 | 1010 | 10 | N 0 | |
| Ieri h: 04:56 | Molto Nuvoloso | 23 | 19 | 78 | 1010 | 10 | SO 7.4 | |
| Ieri h: 03:56 | Nuvoloso | 23 | 20 | 83 | 1011 | 10 | N 5.5 | |
| Ieri h: 02:56 | Molto Nuvoloso | 23 | 20 | 83 | 1011 | 10 | N 5.5 | |
| Ieri h: 01:56 | Coperto | 22 | 20 | 88 | 1011 | 10 | E 9.3 | |



